Time;durP1;ratioP1;P1;durP2;ratioP2;P2;SDS_P1;SDS_P2;PMS_P1;PMS_P2;Temp;Humidity;BMP_temperature;BMP_pressure;BME280_temperature;BME280_humidity;BME280_pressure;Samples;Min_cycle;Max_cycle;Signal;HPM_P1;HPM_P2
2023/05/17 00:01:59;;;;;;;12.85;3.95;;;9.60;99.90;;;;;;4880965;29;20064;-79
2023/05/17 00:04:26;;;;;;;11.15;3.80;;;9.60;99.90;;;;;;4882408;29;20072;-77
2023/05/17 00:06:55;;;;;;;11.10;3.53;;;9.60;99.90;;;;;;4882830;29;20356;-79
2023/05/17 00:09:22;;;;;;;10.05;3.90;;;9.50;99.90;;;;;;4896348;29;20473;-78
2023/05/17 00:11:48;;;;;;;16.00;4.80;;;9.50;99.90;;;;;;4882228;29;20420;-78
2023/05/17 00:14:15;;;;;;;13.35;3.85;;;9.40;99.90;;;;;;4896263;29;20361;-79
2023/05/17 00:16:43;;;;;;;16.65;4.45;;;9.40;99.90;;;;;;4895428;29;20045;-79
2023/05/17 00:19:09;;;;;;;12.15;4.20;;;9.30;99.90;;;;;;4896704;29;20056;-77
2023/05/17 00:21:36;;;;;;;18.38;4.30;;;9.30;99.90;;;;;;4896855;29;20045;-78
2023/05/17 00:24:06;;;;;;;14.45;4.75;;;9.20;99.90;;;;;;4895685;29;20328;-77
2023/05/17 00:26:35;;;;;;;11.23;4.05;;;9.20;99.90;;;;;;4882227;29;20124;-78
2023/05/17 00:29:02;;;;;;;11.05;3.95;;;9.10;99.90;;;;;;4881367;29;20053;-78
2023/05/17 00:31:29;;;;;;;15.10;4.20;;;9.20;99.90;;;;;;4880817;29;20380;-78
2023/05/17 00:33:56;;;;;;;10.88;4.03;;;9.10;99.90;;;;;;4882097;29;20120;-78
2023/05/17 00:39:08;;;;;;;11.32;4.03;;;9.10;99.90;;;;;;4880810;29;20053;-77
2023/05/17 00:41:35;;;;;;;14.13;3.95;;;9.10;99.90;;;;;;4880734;29;20112;-78
2023/05/17 00:44:02;;;;;;;11.45;4.18;;;9.00;99.90;;;;;;4896173;29;20053;-77
2023/05/17 00:46:32;;;;;;;11.20;3.88;;;9.00;99.90;;;;;;4896072;29;20041;-77
2023/05/17 00:48:59;;;;;;;20.67;4.38;;;9.00;99.90;;;;;;4895690;29;20052;-78
2023/05/17 00:51:25;;;;;;;11.70;4.00;;;8.90;99.90;;;;;;4881229;29;20037;-77
2023/05/17 00:53:52;;;;;;;9.93;3.63;;;8.90;99.90;;;;;;4895771;29;20057;-78
2023/05/17 00:56:19;;;;;;;12.25;4.07;;;8.80;99.90;;;;;;4895098;29;20049;-77
2023/05/17 00:58:46;;;;;;;8.93;3.42;;;8.90;99.90;;;;;;4896145;29;20480;-77
2023/05/17 01:01:12;;;;;;;11.43;3.47;;;8.80;99.90;;;;;;4889598;29;20056;-78
2023/05/17 01:03:43;;;;;;;11.57;3.90;;;8.80;99.90;;;;;;4876715;29;20117;-78
2023/05/17 01:06:11;;;;;;;14.25;4.22;;;8.80;99.90;;;;;;4877303;29;20084;-77
2023/05/17 01:08:39;;;;;;;11.77;3.70;;;8.80;99.90;;;;;;4861582;29;20049;-78
2023/05/17 01:11:05;;;;;;;12.48;4.38;;;8.80;99.90;;;;;;4862097;29;20121;-77
2023/05/17 01:13:32;;;;;;;14.18;3.90;;;8.80;99.90;;;;;;4877356;29;20140;-77
2023/05/17 01:16:00;;;;;;;11.27;3.78;;;8.80;99.90;;;;;;4876308;29;20160;-78
2023/05/17 01:18:26;;;;;;;10.77;3.70;;;8.70;99.90;;;;;;4877330;29;20143;-78
2023/05/17 01:20:53;;;;;;;11.93;3.72;;;8.70;99.90;;;;;;4876824;29;20068;-78
2023/05/17 01:23:20;;;;;;;12.23;4.53;;;8.60;99.90;;;;;;4876635;29;20141;-78
2023/05/17 01:25:48;;;;;;;9.65;3.75;;;8.70;99.90;;;;;;4876862;29;20378;-78
2023/05/17 01:28:16;;;;;;;12.95;4.22;;;8.60;99.90;;;;;;4877215;29;20041;-78
2023/05/17 01:30:43;;;;;;;10.82;3.85;;;8.60;99.90;;;;;;4861667;29;20069;-78
2023/05/17 01:33:10;;;;;;;12.25;4.40;;;8.60;99.90;;;;;;4877753;29;20132;-77
2023/05/17 01:35:36;;;;;;;12.50;4.68;;;8.50;99.90;;;;;;4861530;29;20053;-78
2023/05/17 01:38:03;;;;;;;10.32;4.03;;;8.50;99.90;;;;;;4862688;29;20132;-78
2023/05/17 01:40:30;;;;;;;10.25;3.60;;;8.50;99.90;;;;;;4862187;29;20063;-78
2023/05/17 01:42:56;;;;;;;13.18;3.60;;;8.40;99.90;;;;;;4876360;29;20381;-77
2023/05/17 01:45:23;;;;;;;11.20;4.05;;;8.50;99.90;;;;;;4862457;29;20338;-78
2023/05/17 01:47:52;;;;;;;8.57;3.10;;;8.40;99.90;;;;;;4877158;29;20183;-78
2023/05/17 01:50:19;;;;;;;13.02;4.15;;;8.40;99.90;;;;;;4861295;29;20052;-77
2023/05/17 01:52:46;;;;;;;12.90;3.75;;;8.40;99.90;;;;;;4862493;29;20496;-77
2023/05/17 01:55:13;;;;;;;12.13;4.22;;;8.30;99.90;;;;;;4876382;29;20346;-78
2023/05/17 02:00:26;;;;;;;13.60;4.53;;;8.20;99.90;;;;;;4876825;29;20496;-78
2023/05/17 02:02:53;;;;;;;12.35;4.18;;;8.20;99.90;;;;;;4861401;29;20073;-78
2023/05/17 02:05:20;;;;;;;13.00;4.30;;;8.20;99.90;;;;;;4876568;29;20152;-77
2023/05/17 02:10:50;;;;;;;12.85;4.53;;;8.10;99.90;;;;;;4875846;29;20373;-78
2023/05/17 02:13:16;;;;;;;16.75;4.75;;;8.10;99.90;;;;;;4862697;29;20125;-78
2023/05/17 02:15:43;;;;;;;14.32;4.97;;;8.10;99.90;;;;;;4876167;29;20482;-78
2023/05/17 02:18:10;;;;;;;10.85;4.05;;;8.00;99.90;;;;;;4877121;29;20052;-77
2023/05/17 02:20:38;;;;;;;16.08;4.43;;;8.00;99.90;;;;;;4862335;29;20120;-78
2023/05/17 02:23:04;;;;;;;19.70;4.78;;;8.00;99.90;;;;;;4876277;29;20453;-78
2023/05/17 02:25:31;;;;;;;15.27;4.65;;;8.00;99.90;;;;;;4880333;29;20065;-78
2023/05/17 02:30:44;;;;;;;13.07;4.38;;;8.00;99.90;;;;;;4864442;29;20042;-78
2023/05/17 02:33:12;;;;;;;15.13;4.82;;;8.00;99.90;;;;;;4879966;29;20113;-78
2023/05/17 02:35:39;;;;;;;12.88;4.05;;;7.90;99.90;;;;;;4879270;29;20445;-78
2023/05/17 02:38:05;;;;;;;11.48;3.67;;;7.90;99.90;;;;;;4880296;29;20045;-78
2023/05/17 02:40:32;;;;;;;12.63;4.53;;;7.90;99.90;;;;;;4865388;29;20049;-78
2023/05/17 02:43:01;;;;;;;10.18;3.97;;;7.90;99.90;;;;;;4863719;29;20056;-78
2023/05/17 02:45:28;;;;;;;12.50;3.67;;;7.90;99.90;;;;;;4865514;29;20073;-78
2023/05/17 02:47:56;;;;;;;11.88;3.85;;;7.90;99.90;;;;;;4879917;29;20042;-79
2023/05/17 02:50:23;;;;;;;10.68;4.45;;;7.80;99.90;;;;;;4864394;29;20373;-77
2023/05/17 02:52:50;;;;;;;15.60;4.82;;;7.80;99.90;;;;;;4865195;29;20139;-78
2023/05/17 02:55:16;;;;;;;13.10;4.55;;;7.80;99.90;;;;;;4863330;29;20140;-78
2023/05/17 02:57:43;;;;;;;12.63;4.45;;;7.80;99.90;;;;;;4879573;29;20413;-78
2023/05/17 03:00:11;;;;;;;12.57;4.38;;;7.80;99.90;;;;;;4879588;29;20481;-78
2023/05/17 03:02:37;;;;;;;10.75;3.95;;;7.70;99.90;;;;;;4878595;29;20057;-78
2023/05/17 03:05:04;;;;;;;12.55;4.32;;;7.70;99.90;;;;;;4879861;29;20065;-78
2023/05/17 03:10:17;;;;;;;9.48;4.32;;;7.70;99.90;;;;;;4878408;29;20049;-78
2023/05/17 03:12:45;;;;;;;14.88;4.13;;;7.70;99.90;;;;;;4879525;29;20479;-79
2023/05/17 03:15:14;;;;;;;10.30;3.92;;;7.60;99.90;;;;;;4878343;29;20101;-79
2023/05/17 03:17:42;;;;;;;14.02;4.68;;;7.60;99.90;;;;;;4879542;29;20069;-78
2023/05/17 03:20:09;;;;;;;13.70;4.35;;;7.60;99.90;;;;;;4879320;29;20529;-78
2023/05/17 03:22:36;;;;;;;10.13;3.53;;;7.60;99.90;;;;;;4863788;29;20128;-78
2023/05/17 03:25:04;;;;;;;15.00;4.07;;;7.50;99.90;;;;;;4878972;29;20045;-78
2023/05/17 03:27:32;;;;;;;14.02;3.92;;;7.50;99.90;;;;;;4863455;29;20533;-78
2023/05/17 03:30:00;;;;;;;11.02;3.88;;;7.50;99.90;;;;;;4877779;29;20171;-78
2023/05/17 03:32:28;;;;;;;11.65;4.57;;;7.50;99.90;;;;;;4878662;29;20125;-78
2023/05/17 03:34:55;;;;;;;9.63;3.92;;;7.50;99.90;;;;;;4877793;29;20050;-78
2023/05/17 03:37:25;;;;;;;8.73;3.53;;;7.40;99.90;;;;;;4878073;29;20072;-79
2023/05/17 03:39:52;;;;;;;11.30;4.10;;;7.40;99.90;;;;;;4878467;29;20105;-78
2023/05/17 03:42:18;;;;;;;14.32;3.92;;;7.40;99.90;;;;;;4862653;29;20127;-78
2023/05/17 03:44:46;;;;;;;11.25;4.38;;;7.40;99.90;;;;;;4878935;29;20145;-78
2023/05/17 03:47:13;;;;;;;13.25;4.63;;;7.40;99.90;;;;;;4878946;29;20049;-79
2023/05/17 03:49:40;;;;;;;13.02;4.05;;;7.30;99.90;;;;;;4877827;29;20140;-79
2023/05/17 03:52:07;;;;;;;10.10;4.30;;;7.30;99.90;;;;;;4878566;29;20045;-79
2023/05/17 03:54:34;;;;;;;14.88;4.45;;;7.30;99.90;;;;;;4879232;29;20529;-78
2023/05/17 03:57:02;;;;;;;10.63;3.90;;;7.30;99.90;;;;;;4862751;29;20473;-79
2023/05/17 03:59:30;;;;;;;17.50;4.50;;;7.30;99.90;;;;;;4878790;29;20520;-78
2023/05/17 04:01:56;;;;;;;11.93;4.03;;;7.20;99.90;;;;;;4888898;29;20384;-78
2023/05/17 04:04:23;;;;;;;11.30;4.47;;;7.30;99.90;;;;;;4882305;29;20068;-77
2023/05/17 04:09:36;;;;;;;13.80;3.75;;;7.20;99.90;;;;;;4880580;29;20381;-79
2023/05/17 04:12:02;;;;;;;17.10;4.63;;;7.20;99.90;;;;;;4896599;29;20121;-78
2023/05/17 04:14:30;;;;;;;16.25;4.45;;;7.20;99.90;;;;;;4882130;29;20049;-79
2023/05/17 04:19:45;;;;;;;14.07;4.20;;;7.20;99.90;;;;;;4881337;29;20049;-78
2023/05/17 04:22:13;;;;;;;13.40;4.63;;;7.20;99.90;;;;;;4880417;29;20049;-78
2023/05/17 04:24:40;;;;;;;14.07;4.13;;;7.20;99.90;;;;;;4881037;29;20056;-79
2023/05/17 04:27:07;;;;;;;12.77;3.85;;;7.20;99.90;;;;;;4896869;29;20119;-78
2023/05/17 04:29:34;;;;;;;14.20;4.30;;;7.20;99.90;;;;;;4880502;29;20041;-79
2023/05/17 04:32:01;;;;;;;15.52;4.70;;;7.20;99.90;;;;;;4881578;29;20045;-79
2023/05/17 04:34:28;;;;;;;13.57;4.05;;;7.20;99.90;;;;;;4881459;29;20061;-78
2023/05/17 04:36:56;;;;;;;16.90;4.45;;;7.20;99.90;;;;;;4880000;29;20436;-78
2023/05/17 04:39:24;;;;;;;14.57;4.10;;;7.20;99.90;;;;;;4896670;29;20469;-79
2023/05/17 04:41:51;;;;;;;11.20;3.97;;;7.20;99.90;;;;;;4879958;29;20386;-78
2023/05/17 04:44:18;;;;;;;17.52;5.07;;;7.20;99.90;;;;;;4896334;29;20520;-78
2023/05/17 04:46:47;;;;;;;13.15;4.68;;;7.30;99.90;;;;;;4895860;29;20049;-78
2023/05/17 04:49:14;;;;;;;15.40;4.53;;;7.30;99.90;;;;;;4880267;29;20060;-78
2023/05/17 04:51:41;;;;;;;14.32;4.53;;;7.40;99.90;;;;;;4880410;29;20134;-78
2023/05/17 04:54:09;;;;;;;16.77;4.97;;;7.50;99.90;;;;;;4896685;29;20057;-78
2023/05/17 04:56:38;;;;;;;13.27;4.35;;;7.50;99.90;;;;;;4880798;29;20041;-79
2023/05/17 04:59:10;;;;;;;11.50;3.83;;;7.60;99.90;;;;;;4880610;29;20045;-78
2023/05/17 05:01:37;;;;;;;12.05;4.30;;;7.70;99.90;;;;;;4871762;29;20481;-78
2023/05/17 05:04:06;;;;;;;15.30;4.50;;;7.70;99.90;;;;;;4862828;29;20049;-79
2023/05/17 05:06:39;;;;;;;16.00;5.22;;;7.80;99.90;;;;;;4877955;29;20049;-78
2023/05/17 05:09:06;;;;;;;12.70;4.20;;;7.90;99.90;;;;;;4876514;29;20154;-78
2023/05/17 05:11:35;;;;;;;11.15;3.83;;;8.00;99.90;;;;;;4861582;29;20048;-78
2023/05/17 05:14:03;;;;;;;8.43;3.63;;;8.10;99.90;;;;;;4877413;29;20184;-78
2023/05/17 05:16:30;;;;;;;16.85;4.45;;;8.30;99.90;;;;;;4876472;29;20042;-79
2023/05/17 05:18:57;;;;;;;14.45;4.78;;;8.40;99.90;;;;;;4877255;29;20469;-78
2023/05/17 05:21:24;;;;;;;13.90;4.40;;;8.50;99.90;;;;;;4876973;29;20495;-78
2023/05/17 05:23:51;;;;;;;14.95;4.68;;;8.60;99.90;;;;;;4861160;29;20056;-79
2023/05/17 05:26:19;;;;;;;13.70;4.47;;;8.80;99.90;;;;;;4877056;29;20049;-79
2023/05/17 05:28:45;;;;;;;11.43;4.60;;;8.90;99.90;;;;;;4876280;29;20073;-77
2023/05/17 05:31:12;;;;;;;17.63;4.97;;;9.00;99.90;;;;;;4877056;29;20651;-79
2023/05/17 05:33:46;;;;;;;13.50;4.55;;;9.20;99.90;;;;;;4876974;29;20052;-78
2023/05/17 05:39:03;;;;;;;13.23;4.30;;;9.40;99.90;;;;;;4876970;29;20049;-78
2023/05/17 05:41:31;;;;;;;14.13;4.50;;;9.60;99.90;;;;;;4876953;29;20069;-78
2023/05/17 05:43:58;;;;;;;20.90;4.20;;;9.70;99.90;;;;;;4875923;29;20469;-78
2023/05/17 05:46:25;;;;;;;15.35;4.80;;;9.80;99.90;;;;;;4877346;29;20065;-78
2023/05/17 05:48:52;;;;;;;23.45;6.22;;;9.90;99.90;;;;;;4876604;29;20114;-79
2023/05/17 05:51:19;;;;;;;13.90;5.15;;;10.10;99.90;;;;;;4876663;29;20066;-78
2023/05/17 05:53:49;;;;;;;15.38;5.13;;;10.10;99.90;;;;;;4877164;29;20049;-78
2023/05/17 05:56:20;;;;;;;19.63;5.50;;;10.20;99.90;;;;;;4860820;29;20042;-77
2023/05/17 05:58:47;;;;;;;17.77;5.40;;;10.20;99.90;;;;;;4880153;29;20469;-78
2023/05/17 06:01:13;;;;;;;18.55;5.53;;;10.30;99.90;;;;;;4880141;29;20041;-78
2023/05/17 06:03:40;;;;;;;31.00;6.13;;;10.40;99.90;;;;;;4879631;29;20057;-79
2023/05/17 06:06:07;;;;;;;22.50;5.20;;;10.40;99.90;;;;;;4880417;29;20045;-78
2023/05/17 06:08:34;;;;;;;18.05;5.43;;;10.60;99.90;;;;;;4864816;29;20045;-79
2023/05/17 06:11:01;;;;;;;15.70;4.85;;;10.70;99.90;;;;;;4879622;29;20136;-78
2023/05/17 06:13:27;;;;;;;25.05;5.85;;;10.80;99.90;;;;;;4880426;29;20077;-79
2023/05/17 06:18:24;;;;;;;14.75;5.00;;;11.00;99.90;;;;;;4866163;29;20069;-79
2023/05/17 06:20:51;;;;;;;21.10;5.07;;;11.20;99.90;;;;;;4879959;29;20181;-78
2023/05/17 06:23:18;;;;;;;20.00;5.95;;;11.30;99.90;;;;;;4864865;29;20041;-79
2023/05/17 06:25:44;;;;;;;21.17;5.38;;;11.50;99.90;;;;;;4883309;29;20508;-77
2023/05/17 06:28:11;;;;;;;16.83;5.53;;;11.60;99.90;;;;;;4880569;29;20061;-79
2023/05/17 06:30:37;;;;;;;14.95;4.90;;;11.70;99.90;;;;;;4879265;29;20078;-78
2023/05/17 06:33:04;;;;;;;20.38;5.35;;;11.70;99.90;;;;;;4879951;29;20041;-78
2023/05/17 06:35:31;;;;;;;16.13;4.55;;;11.80;99.90;;;;;;4884732;29;20465;-78
2023/05/17 06:38:18;;;;;;;11.45;4.20;;;11.90;99.90;;;;;;4886125;29;20037;-79
2023/05/17 06:40:44;;;;;;;19.38;5.07;;;12.10;99.90;;;;;;4883292;29;20045;-78
2023/05/17 06:43:11;;;;;;;18.75;4.97;;;12.20;99.90;;;;;;4883358;29;20521;-79
2023/05/17 06:45:38;;;;;;;16.30;4.25;;;12.30;99.90;;;;;;4885625;29;20148;-77
2023/05/17 06:48:04;;;;;;;17.20;4.93;;;12.40;99.90;;;;;;4902134;29;20073;-77
2023/05/17 06:50:31;;;;;;;14.10;4.88;;;12.50;99.90;;;;;;4880686;29;20480;-77
2023/05/17 06:52:59;;;;;;;14.73;4.90;;;12.50;99.90;;;;;;4883274;29;20052;-78
2023/05/17 06:55:26;;;;;;;14.88;4.20;;;12.60;99.90;;;;;;4881912;29;20045;-77
2023/05/17 06:57:56;;;;;;;13.55;4.47;;;12.90;99.90;;;;;;4883741;29;20101;-79
2023/05/17 07:00:23;;;;;;;12.23;4.35;;;13.00;99.90;;;;;;4897553;29;20144;-79
2023/05/17 07:02:50;;;;;;;17.13;4.90;;;13.20;99.90;;;;;;4882556;29;20103;-78
2023/05/17 07:05:17;;;;;;;13.35;3.80;;;13.30;99.90;;;;;;4883442;29;20049;-79
2023/05/17 07:07:45;;;;;;;16.13;4.88;;;13.40;99.90;;;;;;4882162;29;20053;-79
2023/05/17 07:10:11;;;;;;;13.23;4.30;;;13.50;99.90;;;;;;4881546;29;20059;-78
2023/05/17 07:12:38;;;;;;;13.95;4.43;;;13.60;99.90;;;;;;4883273;29;20372;-78
2023/05/17 07:15:05;;;;;;;12.00;5.18;;;13.70;99.90;;;;;;4897739;29;20141;-78
2023/05/17 07:17:34;;;;;;;15.45;5.18;;;13.90;99.90;;;;;;4881464;29;20081;-78
2023/05/17 07:20:01;;;;;;;14.45;4.93;;;14.10;99.90;;;;;;4882926;29;20041;-78
2023/05/17 07:22:28;;;;;;;16.27;5.00;;;14.30;99.90;;;;;;4882136;29;20051;-78
2023/05/17 07:24:54;;;;;;;18.70;4.63;;;14.20;99.90;;;;;;4898079;29;20135;-78
2023/05/17 07:27:21;;;;;;;15.35;4.90;;;14.40;99.90;;;;;;4882979;29;20049;-78
2023/05/17 07:29:48;;;;;;;22.33;7.00;;;14.50;99.90;;;;;;4882017;29;20051;-78
2023/05/17 07:32:15;;;;;;;16.80;5.40;;;14.70;99.90;;;;;;4883085;29;20052;-78
2023/05/17 07:34:42;;;;;;;21.80;5.15;;;14.90;99.90;;;;;;4882875;29;20041;-78
2023/05/17 07:37:09;;;;;;;13.68;4.85;;;15.00;99.90;;;;;;4881142;29;20430;-77
2023/05/17 07:39:36;;;;;;;16.75;5.05;;;15.20;99.90;;;;;;4897107;29;20479;-85
2023/05/17 07:42:03;;;;;;;15.20;5.28;;;15.10;99.90;;;;;;4880912;29;20059;-79
2023/05/17 07:44:31;;;;;;;15.45;5.25;;;15.10;99.90;;;;;;4882404;29;20041;-79
2023/05/17 07:46:59;;;;;;;16.80;5.47;;;15.30;99.90;;;;;;4897265;29;20388;-80
2023/05/17 07:49:26;;;;;;;19.48;5.40;;;15.40;99.90;;;;;;4880710;29;20056;-79
2023/05/17 07:51:54;;;;;;;13.05;5.10;;;15.10;99.90;;;;;;4897667;29;20072;-79
2023/05/17 07:54:21;;;;;;;20.98;5.10;;;15.20;99.90;;;;;;4883004;29;20049;-80
2023/05/17 07:56:48;;;;;;;16.48;5.65;;;15.30;99.90;;;;;;4881718;29;20097;-79
2023/05/17 07:59:15;;;;;;;17.98;5.03;;;15.30;99.90;;;;;;4882185;29;20428;-79
2023/05/17 08:01:41;;;;;;;15.38;5.18;;;15.50;99.90;;;;;;4878018;29;20477;-82
2023/05/17 08:04:08;;;;;;;15.20;5.78;;;15.80;99.90;;;;;;4888752;29;20329;-82
2023/05/17 08:06:36;;;;;;;18.17;5.40;;;15.80;99.90;;;;;;4882951;29;20417;-83
2023/05/17 08:09:03;;;;;;;16.25;5.78;;;15.90;99.90;;;;;;4864581;29;20475;-82
2023/05/17 08:11:30;;;;;;;18.88;6.20;;;16.00;99.90;;;;;;4896410;29;20396;-80
2023/05/17 08:13:59;;;;;;;19.60;5.88;;;15.80;99.90;;;;;;4865585;29;20048;-82
2023/05/17 08:19:15;;;;;;;14.82;5.30;;;15.70;99.90;;;;;;4873832;29;20060;-79
2023/05/17 08:21:42;;;;;;;17.67;5.63;;;15.80;99.90;;;;;;4880160;29;20049;-85
2023/05/17 08:24:12;;;;;;;11.30;4.82;;;16.00;99.90;;;;;;4879390;29;20559;-78
2023/05/17 08:26:39;;;;;;;13.48;4.60;;;16.20;99.90;;;;;;4881125;29;20091;-80
2023/05/17 08:29:05;;;;;;;14.88;5.70;;;16.50;99.90;;;;;;4881610;29;20434;-84
2023/05/17 08:31:32;;;;;;;17.67;5.10;;;16.60;99.90;;;;;;4878980;29;20041;-79
2023/05/17 08:33:59;;;;;;;16.42;5.30;;;16.60;99.90;;;;;;4881336;29;20558;-79
2023/05/17 08:39:12;;;;;;;15.77;5.13;;;16.50;99.90;;;;;;4881478;29;20380;-79
2023/05/17 08:41:47;;;;;;;16.42;5.20;;;16.50;99.90;;;;;;5132518;27;20502;-78
2023/05/17 08:44:13;;;;;;;13.95;5.47;;;16.60;99.90;;;;;;5093460;28;20040;-78
2023/05/17 08:46:40;;;;;;;17.55;5.70;;;16.60;99.90;;;;;;5094140;28;20078;-77
2023/05/17 08:49:11;;;;;;;17.83;6.03;;;16.50;99.90;;;;;;5110939;28;20032;-78
2023/05/17 08:51:38;;;;;;;16.63;5.18;;;16.70;99.90;;;;;;5111347;28;20472;-78
2023/05/17 08:54:05;;;;;;;17.17;5.10;;;17.00;99.90;;;;;;5095345;28;20036;-78
2023/05/17 08:56:34;;;;;;;16.50;4.85;;;17.10;99.90;;;;;;5076198;28;20063;-79
2023/05/17 08:59:01;;;;;;;14.23;5.15;;;17.20;99.90;;;;;;5099912;28;20044;-78
2023/05/17 09:01:28;;;;;;;20.05;5.18;;;17.20;99.90;;;;;;5073385;28;20046;-79
2023/05/17 09:03:58;;;;;;;13.07;5.17;;;17.40;99.90;;;;;;5090511;28;20041;-79
2023/05/17 09:06:27;;;;;;;15.52;5.13;;;17.30;99.90;;;;;;5073966;28;20085;-79
2023/05/17 09:08:54;;;;;;;15.52;5.22;;;17.40;99.90;;;;;;5056228;28;20403;-79
2023/05/17 09:11:21;;;;;;;17.60;5.13;;;17.50;99.90;;;;;;5057037;28;20544;-79
2023/05/17 09:13:48;;;;;;;17.08;5.30;;;17.60;99.90;;;;;;5062160;28;20078;-76
2023/05/17 09:16:15;;;;;;;16.67;5.43;;;17.70;99.90;;;;;;5100692;28;20040;-77
2023/05/17 09:18:41;;;;;;;16.90;5.53;;;17.80;99.90;;;;;;5106435;28;20478;-77
2023/05/17 09:21:08;;;;;;;16.27;5.25;;;17.50;99.90;;;;;;5093288;28;20042;-77
2023/05/17 09:23:35;;;;;;;21.77;5.18;;;17.80;99.90;;;;;;5092597;28;20123;-77
2023/05/17 09:26:02;;;;;;;13.32;4.28;;;18.10;99.90;;;;;;5112552;28;20039;-77
2023/05/17 09:28:30;;;;;;;18.20;5.35;;;18.10;99.90;;;;;;5111266;28;20074;-76
2023/05/17 09:30:56;;;;;;;16.20;5.10;;;18.20;99.90;;;;;;5110847;28;20036;-77
2023/05/17 09:33:23;;;;;;;14.43;4.60;;;18.50;99.90;;;;;;5111516;28;20044;-77
2023/05/17 09:35:51;;;;;;;16.08;5.40;;;18.70;99.90;;;;;;5110612;28;20043;-77
2023/05/17 09:38:17;;;;;;;14.23;5.60;;;18.80;99.90;;;;;;5111154;28;20048;-77
2023/05/17 09:40:45;;;;;;;16.23;5.50;;;18.70;99.90;;;;;;5098885;28;20486;-77
2023/05/17 09:43:12;;;;;;;14.15;5.28;;;18.60;99.90;;;;;;5090360;28;20055;-77
2023/05/17 09:45:38;;;;;;;19.05;5.93;;;18.70;99.90;;;;;;5090556;28;20082;-77
2023/05/17 09:48:05;;;;;;;15.80;5.28;;;18.60;99.90;;;;;;5071886;28;20044;-77
2023/05/17 09:50:32;;;;;;;15.30;5.43;;;18.90;99.90;;;;;;5089430;28;20090;-77
2023/05/17 09:52:58;;;;;;;14.95;4.60;;;19.10;99.90;;;;;;5077720;28;20045;-77
2023/05/17 09:55:26;;;;;;;11.48;4.60;;;19.30;99.90;;;;;;5076707;28;20064;-77
2023/05/17 09:57:53;;;;;;;11.25;4.05;;;19.50;99.90;;;;;;5077071;28;20048;-77
2023/05/17 10:00:20;;;;;;;23.52;4.32;;;19.30;99.90;;;;;;5075987;28;20128;-76
2023/05/17 10:02:47;;;;;;;11.88;4.68;;;19.10;99.90;;;;;;5055998;28;20037;-76
2023/05/17 10:05:14;;;;;;;18.85;4.95;;;18.70;99.90;;;;;;5056381;28;20098;-77
2023/05/17 10:07:41;;;;;;;15.07;5.03;;;18.60;99.90;;;;;;5056097;28;20037;-76
2023/05/17 10:10:08;;;;;;;14.27;4.85;;;19.00;99.90;;;;;;5055049;28;20100;-77
2023/05/17 10:12:35;;;;;;;18.45;5.38;;;19.00;99.90;;;;;;5038901;28;20126;-76
2023/05/17 10:15:02;;;;;;;17.60;4.47;;;19.50;99.90;;;;;;5055526;28;20076;-77
2023/05/17 10:17:28;;;;;;;13.07;5.22;;;20.10;99.90;;;;;;5055058;28;20079;-77
2023/05/17 10:19:56;;;;;;;14.38;5.30;;;20.80;99.90;;;;;;5070770;28;20040;-77
2023/05/17 10:22:23;;;;;;;17.67;5.75;;;21.30;99.90;;;;;;5056108;28;20036;-77
2023/05/17 10:24:50;;;;;;;15.10;5.07;;;21.60;99.90;;;;;;5069937;28;20451;-77
2023/05/17 10:27:17;;;;;;;16.90;6.95;;;21.00;99.90;;;;;;5064701;28;20136;-77
2023/05/17 10:29:44;;;;;;;12.32;4.60;;;20.40;99.90;;;;;;5060626;28;20045;-77
2023/05/17 10:32:16;;;;;;;14.45;5.43;;;19.90;99.90;;;;;;5075134;28;20047;-76
2023/05/17 10:34:42;;;;;;;14.70;4.70;;;19.70;99.90;;;;;;5056207;28;20059;-77
2023/05/17 10:39:57;;;;;;;15.70;4.57;;;20.00;99.90;;;;;;5071517;28;20113;-79
2023/05/17 10:42:23;;;;;;;11.65;4.32;;;20.80;99.90;;;;;;5057963;28;20124;-79
2023/05/17 10:44:50;;;;;;;12.18;5.53;;;21.40;99.90;;;;;;5075992;28;20045;-79
2023/05/17 10:47:18;;;;;;;11.45;4.82;;;21.70;99.90;;;;;;5076185;28;20046;-79
2023/05/17 10:49:48;;;;;;;15.23;5.78;;;21.50;99.10;;;;;;5057652;28;20072;-80
2023/05/17 10:52:15;;;;;;;14.50;5.40;;;20.80;99.00;;;;;;5058253;28;20055;-77
2023/05/17 10:54:42;;;;;;;14.95;5.75;;;20.80;99.90;;;;;;5075852;28;20036;-77
2023/05/17 10:57:14;;;;;;;13.73;6.00;;;21.40;98.70;;;;;;5074907;28;20032;-77
2023/05/17 10:59:41;;;;;;;12.32;6.18;;;22.40;98.30;;;;;;5075788;28;20097;-77
2023/05/17 11:02:08;;;;;;;15.80;5.80;;;22.70;95.50;;;;;;5065219;28;20090;-77
2023/05/17 11:04:35;;;;;;;10.80;4.40;;;22.40;93.00;;;;;;5056402;28;20110;-76
2023/05/17 11:07:03;;;;;;;13.10;4.70;;;22.10;95.50;;;;;;5057671;28;20040;-79
2023/05/17 11:09:33;;;;;;;14.40;5.82;;;22.20;95.00;;;;;;5057632;28;20056;-78
2023/05/17 11:12:00;;;;;;;16.13;5.30;;;22.50;93.60;;;;;;5076288;28;20124;-78
2023/05/17 11:14:26;;;;;;;17.38;6.90;;;22.80;93.10;;;;;;5075352;28;20430;-79
2023/05/17 11:16:56;;;;;;;13.30;6.75;;;23.20;92.40;;;;;;5040534;28;20036;-81
2023/05/17 11:19:23;;;;;;;14.18;5.72;;;23.60;90.80;;;;;;5051271;28;20107;-77
2023/05/17 11:21:50;;;;;;;15.30;6.05;;;24.00;90.50;;;;;;5064350;28;20032;-78
2023/05/17 11:24:17;;;;;;;13.13;5.63;;;23.80;84.90;;;;;;5045881;28;20028;-78
2023/05/17 11:26:47;;;;;;;14.35;6.35;;;23.90;84.70;;;;;;5048783;28;20144;-84
2023/05/17 11:29:13;;;;;;;13.38;5.75;;;24.00;86.80;;;;;;5045794;28;20438;-77
2023/05/17 11:31:40;;;;;;;11.20;5.38;;;23.60;85.30;;;;;;5063530;28;20056;-78
2023/05/17 11:34:07;;;;;;;11.52;5.28;;;23.40;86.10;;;;;;5054857;28;20062;-77
2023/05/17 11:36:34;;;;;;;15.05;5.03;;;23.70;85.40;;;;;;5073815;28;20062;-78
2023/05/17 11:39:00;;;;;;;11.70;5.05;;;24.00;79.90;;;;;;5057320;28;20439;-78
2023/05/17 11:41:34;;;;;;;14.20;6.10;;;23.80;78.30;;;;;;5074652;28;20467;-78
2023/05/17 11:44:00;;;;;;;11.60;4.80;;;23.00;77.90;;;;;;5069420;28;20121;-78
2023/05/17 11:46:27;;;;;;;11.43;5.90;;;23.00;84.80;;;;;;5074805;28;20040;-78
2023/05/17 11:48:54;;;;;;;12.20;5.43;;;22.90;79.50;;;;;;5074104;28;20481;-77
2023/05/17 11:51:21;;;;;;;10.55;5.03;;;22.50;79.60;;;;;;5074742;28;20135;-78
2023/05/17 11:53:50;;;;;;;11.85;5.00;;;22.30;84.60;;;;;;5074263;28;20101;-77
2023/05/17 11:56:17;;;;;;;12.85;4.18;;;22.20;83.40;;;;;;5073468;28;20037;-78
2023/05/17 11:58:47;;;;;;;12.32;4.72;;;21.80;84.10;;;;;;5073361;28;20055;-77
2023/05/17 12:01:14;;;;;;;11.77;4.20;;;21.30;84.90;;;;;;5067846;28;20056;-79
2023/05/17 12:03:41;;;;;;;15.55;4.18;;;20.80;85.50;;;;;;5036484;28;20091;-79
2023/05/17 12:06:14;;;;;;;11.30;4.13;;;20.60;86.10;;;;;;5040618;28;20524;-78
2023/05/17 12:08:40;;;;;;;11.55;4.28;;;20.50;90.00;;;;;;5062116;28;20041;-77
2023/05/17 12:11:07;;;;;;;10.60;3.22;;;20.50;90.20;;;;;;5054494;28;20460;-77
2023/05/17 12:13:33;;;;;;;12.70;3.38;;;20.30;89.80;;;;;;5054353;28;20041;-77
2023/05/17 12:16:01;;;;;;;10.65;3.47;;;20.20;90.20;;;;;;5053177;28;20075;-76
2023/05/17 12:18:27;;;;;;;11.45;3.95;;;20.20;91.60;;;;;;5054076;28;20114;-76
2023/05/17 12:20:54;;;;;;;18.95;4.53;;;19.90;90.70;;;;;;5053367;28;20122;-77
2023/05/17 12:23:21;;;;;;;13.93;3.63;;;19.70;90.40;;;;;;5035707;28;20065;-77
2023/05/17 12:25:48;;;;;;;12.63;4.03;;;19.70;92.30;;;;;;5053972;28;20041;-77
2023/05/17 12:28:14;;;;;;;13.80;3.67;;;19.80;92.50;;;;;;5036174;28;20045;-77
2023/05/17 12:30:41;;;;;;;10.73;3.50;;;20.10;92.20;;;;;;5052644;28;20128;-77
2023/05/17 12:33:08;;;;;;;11.68;4.13;;;20.10;92.30;;;;;;5054111;28;20053;-77
2023/05/17 12:35:35;;;;;;;12.15;3.63;;;19.90;91.10;;;;;;5052445;28;20053;-77
2023/05/17 12:38:02;;;;;;;12.20;3.65;;;20.00;93.40;;;;;;5054158;28;20422;-77
2023/05/17 12:40:28;;;;;;;14.48;3.67;;;20.10;92.70;;;;;;5053221;28;20391;-77
2023/05/17 12:42:55;;;;;;;11.35;4.20;;;20.10;91.50;;;;;;5052441;28;20041;-76
2023/05/17 12:45:22;;;;;;;9.85;3.78;;;20.00;91.30;;;;;;5053421;28;20076;-77
2023/05/17 12:47:49;;;;;;;12.50;3.92;;;20.00;91.30;;;;;;5036694;28;20037;-77
2023/05/17 12:50:16;;;;;;;9.93;3.60;;;20.10;92.10;;;;;;5052184;28;20098;-77
2023/05/17 12:52:43;;;;;;;11.77;4.05;;;20.20;90.80;;;;;;5019989;28;20069;-77
2023/05/17 12:55:10;;;;;;;11.93;3.45;;;20.20;92.40;;;;;;5019564;28;20498;-77
2023/05/17 12:57:36;;;;;;;10.20;3.83;;;20.30;91.50;;;;;;5053523;28;20053;-77
2023/05/17 13:00:03;;;;;;;10.13;3.67;;;20.30;90.30;;;;;;5053461;28;20060;-77
2023/05/17 13:02:30;;;;;;;20.42;4.32;;;20.30;91.10;;;;;;5052573;28;20597;-77
2023/05/17 13:04:57;;;;;;;10.80;3.65;;;20.60;91.60;;;;;;5053317;28;20118;-77
2023/05/17 13:07:24;;;;;;;10.63;4.35;;;20.60;90.50;;;;;;5053241;28;20040;-77
2023/05/17 13:09:50;;;;;;;10.70;3.70;;;20.90;91.20;;;;;;5034828;28;20041;-77
2023/05/17 13:12:17;;;;;;;14.63;4.47;;;20.90;89.50;;;;;;5053361;28;20083;-78
2023/05/17 13:14:44;;;;;;;11.68;4.03;;;21.00;89.10;;;;;;5036412;28;20120;-77